Time;durP1;ratioP1;P1;durP2;ratioP2;P2;SDS_P1;SDS_P2;PMS_P1;PMS_P2;Temp;Humidity;BMP_temperature;BMP_pressure;BME280_temperature;BME280_humidity;BME280_pressure;Samples;Min_cycle;Max_cycle;Signal;HPM_P1;HPM_P2
2021/12/20 00:00:45;;;;;;;10.25;0.90;;;9.70;96.80;;;;;;5033762;28;20034;-81
2021/12/20 00:03:11;;;;;;;9.35;0.90;;;9.70;96.90;;;;;;5033307;28;20025;-81
2021/12/20 00:05:37;;;;;;;10.50;1.10;;;9.70;96.90;;;;;;5033485;28;20097;-82
2021/12/20 00:08:02;;;;;;;13.77;1.35;;;9.70;96.90;;;;;;5033249;28;20056;-82
2021/12/20 00:10:28;;;;;;;11.38;1.33;;;9.70;96.90;;;;;;5033044;28;20037;-80
2021/12/20 00:12:57;;;;;;;13.25;1.42;;;9.80;96.90;;;;;;5033874;28;20017;-81
2021/12/20 00:15:22;;;;;;;10.70;1.35;;;9.80;96.90;;;;;;5034221;28;20068;-81
2021/12/20 00:17:48;;;;;;;11.85;1.13;;;9.80;96.80;;;;;;5033216;28;20041;-81
2021/12/20 00:20:14;;;;;;;11.07;1.40;;;9.80;96.70;;;;;;5033761;28;20061;-81
2021/12/20 00:22:40;;;;;;;23.20;1.60;;;9.80;96.70;;;;;;5032912;28;20028;-80
2021/12/20 00:25:06;;;;;;;14.02;1.55;;;9.80;96.50;;;;;;5033659;28;20033;-80
2021/12/20 00:27:33;;;;;;;13.63;1.77;;;9.70;96.40;;;;;;5032558;28;20029;-82
2021/12/20 00:29:59;;;;;;;21.88;2.42;;;9.70;96.30;;;;;;5034263;28;20037;-81
2021/12/20 00:32:25;;;;;;;14.70;1.42;;;9.70;96.20;;;;;;5034078;28;20021;-80
2021/12/20 00:34:51;;;;;;;18.00;1.85;;;9.70;96.10;;;;;;5036610;28;20022;-80
2021/12/20 00:40:21;;;;;;;18.77;1.65;;;9.70;96.10;;;;;;5046982;28;20815;-82
2021/12/20 00:42:58;;;;;;;14.35;1.67;;;9.60;96.00;;;;;;5032684;28;20038;-82
2021/12/20 00:45:29;;;;;;;20.75;2.03;;;9.70;95.80;;;;;;5032190;28;20033;-81
2021/12/20 00:47:55;;;;;;;13.45;1.88;;;9.70;95.70;;;;;;5032718;28;20485;-81
2021/12/20 00:50:23;;;;;;;15.82;1.58;;;9.70;95.60;;;;;;5032728;28;20037;-81
2021/12/20 00:52:49;;;;;;;14.77;1.95;;;9.70;95.60;;;;;;5032166;28;20056;-80
2021/12/20 00:55:17;;;;;;;13.18;1.35;;;9.60;95.20;;;;;;5032916;28;20038;-81
2021/12/20 00:57:45;;;;;;;16.27;1.63;;;9.60;95.40;;;;;;5032374;28;20451;-79
2021/12/20 01:00:13;;;;;;;17.00;2.05;;;9.50;95.20;;;;;;5033041;28;20033;-80
2021/12/20 01:02:39;;;;;;;15.75;1.75;;;9.50;95.20;;;;;;5032716;28;20063;-79
2021/12/20 01:05:05;;;;;;;14.77;1.55;;;9.50;95.10;;;;;;5031959;28;20110;-80
2021/12/20 01:07:31;;;;;;;18.15;1.80;;;9.50;94.90;;;;;;5033494;28;20370;-82
2021/12/20 01:10:03;;;;;;;20.75;1.65;;;9.50;95.00;;;;;;5033926;28;20034;-82
2021/12/20 01:12:35;;;;;;;15.43;1.70;;;9.50;95.00;;;;;;5030893;28;20092;-80
2021/12/20 01:15:02;;;;;;;13.05;1.80;;;9.60;95.10;;;;;;5032513;28;20232;-80
2021/12/20 01:17:29;;;;;;;14.68;2.00;;;9.60;95.00;;;;;;5032796;28;20108;-80
2021/12/20 01:19:55;;;;;;;18.40;1.88;;;9.60;94.50;;;;;;5032392;28;20026;-80
2021/12/20 01:22:21;;;;;;;16.42;1.88;;;9.50;94.60;;;;;;5032725;28;20025;-80
2021/12/20 01:24:46;;;;;;;17.23;2.42;;;9.50;94.50;;;;;;5032288;28;20029;-81
2021/12/20 01:27:12;;;;;;;16.30;2.42;;;9.50;94.50;;;;;;5032441;28;20041;-80
2021/12/20 01:29:37;;;;;;;19.65;2.15;;;9.40;94.40;;;;;;5033051;28;20044;-80
2021/12/20 01:32:03;;;;;;;20.27;2.28;;;9.40;94.50;;;;;;5035893;28;20022;-81
2021/12/20 01:34:29;;;;;;;16.05;1.88;;;9.40;94.50;;;;;;5049008;28;20030;-79
2021/12/20 01:36:55;;;;;;;21.63;2.80;;;9.40;94.50;;;;;;5035315;28;20438;-81
2021/12/20 01:39:22;;;;;;;15.82;2.38;;;9.50;94.60;;;;;;5031750;28;20108;-81
2021/12/20 01:41:51;;;;;;;17.25;2.00;;;9.40;94.50;;;;;;5031632;28;20473;-81
2021/12/20 01:44:17;;;;;;;22.10;2.20;;;9.40;94.50;;;;;;5032384;28;20045;-83
2021/12/20 01:46:43;;;;;;;22.17;2.55;;;9.30;94.40;;;;;;5032377;28;20353;-83
2021/12/20 01:49:12;;;;;;;20.42;2.95;;;9.30;94.60;;;;;;5031361;28;20033;-82
2021/12/20 01:52:10;;;;;;;19.20;2.10;;;9.30;94.60;;;;;;5032467;28;20042;-83
2021/12/20 01:54:36;;;;;;;19.20;3.03;;;9.40;94.70;;;;;;5030821;28;20047;-84
2021/12/20 01:57:02;;;;;;;15.60;1.85;;;9.40;94.60;;;;;;5031778;28;20025;-83
2021/12/20 01:59:28;;;;;;;22.05;2.15;;;9.40;94.60;;;;;;5031406;28;20388;-83
2021/12/20 02:01:54;;;;;;;15.85;2.17;;;9.40;94.50;;;;;;5032582;28;20021;-83
2021/12/20 02:04:21;;;;;;;18.50;2.97;;;9.40;94.50;;;;;;5031993;28;20029;-83
2021/12/20 02:06:48;;;;;;;21.05;2.83;;;9.40;94.50;;;;;;5032075;28;20368;-83
2021/12/20 02:09:19;;;;;;;15.48;1.70;;;9.40;94.50;;;;;;5031383;28;20044;-83
2021/12/20 02:11:48;;;;;;;17.27;1.63;;;9.40;94.60;;;;;;5029883;28;20488;-83
2021/12/20 02:14:15;;;;;;;18.05;2.00;;;9.50;94.80;;;;;;5032094;28;20029;-83
2021/12/20 02:16:43;;;;;;;24.02;2.20;;;9.50;94.50;;;;;;5035089;28;20027;-82
2021/12/20 02:19:14;;;;;;;19.60;2.08;;;9.50;94.40;;;;;;5035740;28;20061;-82
2021/12/20 02:21:42;;;;;;;20.67;2.35;;;9.40;94.30;;;;;;5033973;28;20025;-82
2021/12/20 02:24:08;;;;;;;28.77;2.58;;;9.40;94.40;;;;;;5036032;28;20051;-83
2021/12/20 02:26:35;;;;;;;22.08;2.80;;;9.40;94.40;;;;;;5036957;28;20539;-83
2021/12/20 02:29:05;;;;;;;18.30;1.77;;;9.40;94.40;;;;;;5041595;28;20384;-83
2021/12/20 02:37:26;;;;;;;19.75;2.63;;;9.40;94.50;;;;;;5036360;28;20491;-83
2021/12/20 02:39:53;;;;;;;18.25;3.30;;;9.50;94.40;;;;;;5028870;28;20469;-82
2021/12/20 02:42:23;;;;;;;21.05;2.25;;;9.40;94.40;;;;;;5035896;28;20029;-82
2021/12/20 02:45:36;;;;;;;21.17;2.13;;;9.30;94.40;;;;;;5035960;28;20426;-82
2021/12/20 02:47:43;;;;;;;22.58;2.67;;;9.40;94.40;;;;;;5035108;28;20046;-82
2021/12/20 02:50:09;;;;;;;22.20;2.47;;;9.40;94.30;;;;;;5035056;28;20041;-82
2021/12/20 02:52:35;;;;;;;27.77;3.95;;;9.30;94.30;;;;;;5035442;28;20481;-82
2021/12/20 02:55:01;;;;;;;18.30;2.30;;;9.30;94.30;;;;;;5036098;28;20048;-83
2021/12/20 02:57:27;;;;;;;21.55;2.33;;;9.30;94.20;;;;;;5036135;28;20057;-83
2021/12/20 02:59:53;;;;;;;27.67;2.25;;;9.20;94.20;;;;;;5035268;28;20365;-83
2021/12/20 03:02:21;;;;;;;21.95;2.63;;;9.20;94.30;;;;;;5036066;28;20108;-82
2021/12/20 03:04:47;;;;;;;18.50;2.08;;;9.20;94.40;;;;;;5035247;28;20036;-82
2021/12/20 03:07:19;;;;;;;21.17;2.08;;;9.20;94.50;;;;;;5035614;28;20029;-82
2021/12/20 03:09:50;;;;;;;21.10;3.00;;;9.20;94.40;;;;;;5028005;28;20538;-82
2021/12/20 03:12:16;;;;;;;19.13;2.55;;;9.30;94.30;;;;;;5032655;28;20029;-82
2021/12/20 03:14:45;;;;;;;21.27;2.72;;;9.20;94.00;;;;;;5035911;28;20040;-81
2021/12/20 03:17:12;;;;;;;23.58;2.80;;;9.10;94.00;;;;;;5035264;28;20029;-80
2021/12/20 03:19:38;;;;;;;21.23;2.55;;;9.10;94.20;;;;;;5035625;28;20120;-80
2021/12/20 03:22:05;;;;;;;18.85;2.45;;;9.10;94.30;;;;;;5035278;28;20022;-80
2021/12/20 03:24:31;;;;;;;22.48;2.50;;;9.10;94.30;;;;;;5035816;28;20431;-81
2021/12/20 03:26:57;;;;;;;25.13;2.80;;;9.20;94.30;;;;;;5043703;28;20029;-81
2021/12/20 03:29:23;;;;;;;22.27;3.08;;;9.20;94.10;;;;;;5049114;28;20033;-81
2021/12/20 03:31:48;;;;;;;27.05;3.15;;;9.20;94.10;;;;;;5039640;28;20505;-81
2021/12/20 03:34:15;;;;;;;18.67;2.30;;;9.20;94.10;;;;;;5035346;28;20026;-81
2021/12/20 03:36:41;;;;;;;23.50;2.42;;;9.30;94.00;;;;;;5034984;28;20033;-81
2021/12/20 03:39:07;;;;;;;24.02;2.50;;;9.20;93.90;;;;;;5035034;28;20037;-81
2021/12/20 03:41:34;;;;;;;19.52;2.35;;;9.10;93.90;;;;;;5034572;28;20036;-80
2021/12/20 03:44:00;;;;;;;24.35;2.72;;;9.10;93.90;;;;;;5034911;28;20041;-82
2021/12/20 03:46:26;;;;;;;19.27;2.47;;;9.10;93.90;;;;;;5034651;28;20362;-81
2021/12/20 03:48:51;;;;;;;19.95;2.17;;;9.10;93.80;;;;;;5034720;28;20068;-81
2021/12/20 03:51:17;;;;;;;17.48;2.25;;;9.00;94.00;;;;;;5034744;28;20104;-81
2021/12/20 03:57:05;;;;;;;17.67;1.98;;;9.10;94.00;;;;;;5029087;28;20056;-81
2021/12/20 03:59:31;;;;;;;17.58;2.05;;;9.10;93.90;;;;;;5034985;28;20026;-81
2021/12/20 04:01:58;;;;;;;26.58;3.10;;;9.10;94.10;;;;;;5034525;28;20401;-81
2021/12/20 04:04:24;;;;;;;24.35;2.35;;;9.10;93.80;;;;;;5035098;28;20037;-81
2021/12/20 04:06:49;;;;;;;24.55;2.88;;;9.10;93.50;;;;;;5034578;28;20026;-81
2021/12/20 04:09:15;;;;;;;23.10;2.13;;;9.00;93.50;;;;;;5034295;28;20049;-81
2021/12/20 04:11:40;;;;;;;16.35;1.80;;;9.00;93.40;;;;;;5033395;28;20075;-81
2021/12/20 04:14:06;;;;;;;17.17;3.03;;;9.00;93.70;;;;;;5034592;28;20053;-81
2021/12/20 04:16:33;;;;;;;21.33;2.95;;;9.10;93.70;;;;;;5034114;28;20029;-81
2021/12/20 04:18:59;;;;;;;22.92;2.58;;;9.00;93.60;;;;;;5034179;28;20112;-82
2021/12/20 04:21:25;;;;;;;15.52;2.05;;;9.00;93.50;;;;;;5033904;28;20128;-81
2021/12/20 04:23:51;;;;;;;24.35;2.33;;;9.00;93.50;;;;;;5035118;28;20030;-81
2021/12/20 04:26:16;;;;;;;24.42;2.63;;;9.10;93.50;;;;;;5045841;28;20033;-81
2021/12/20 04:28:42;;;;;;;18.13;2.40;;;9.00;93.10;;;;;;5045362;28;20065;-81
2021/12/20 04:31:08;;;;;;;23.80;2.45;;;9.00;93.00;;;;;;5034253;28;20538;-80
2021/12/20 04:33:34;;;;;;;22.58;2.55;;;8.90;92.90;;;;;;5033766;28;20029;-80
2021/12/20 04:35:59;;;;;;;20.98;2.38;;;8.90;92.80;;;;;;5034148;28;20021;-81
2021/12/20 04:38:28;;;;;;;18.20;2.17;;;8.80;93.20;;;;;;5032855;28;20108;-81
2021/12/20 04:40:54;;;;;;;24.42;1.90;;;8.80;93.00;;;;;;5033644;28;20030;-80
2021/12/20 04:43:20;;;;;;;16.20;2.30;;;8.90;92.80;;;;;;5033563;28;20164;-80
2021/12/20 04:45:45;;;;;;;15.68;1.77;;;8.90;92.50;;;;;;5033449;28;20108;-80
2021/12/20 04:48:11;;;;;;;14.68;1.60;;;8.90;92.50;;;;;;5033797;28;20029;-80
2021/12/20 04:50:37;;;;;;;23.13;2.13;;;9.00;92.50;;;;;;5033141;28;20041;-82
2021/12/20 04:53:03;;;;;;;26.00;2.67;;;9.00;91.80;;;;;;5033529;28;20044;-80
2021/12/20 04:55:30;;;;;;;20.17;2.17;;;8.90;92.00;;;;;;5033983;28;20041;-81
2021/12/20 04:57:58;;;;;;;15.43;2.25;;;9.00;91.90;;;;;;5034013;28;20022;-81
2021/12/20 05:00:27;;;;;;;15.93;2.42;;;9.00;91.90;;;;;;5033468;28;20389;-82
2021/12/20 05:02:52;;;;;;;16.75;2.15;;;9.00;91.80;;;;;;5033978;28;20029;-81
2021/12/20 05:05:21;;;;;;;18.38;2.22;;;9.00;91.90;;;;;;5034004;28;20499;-81
2021/12/20 05:07:47;;;;;;;18.92;2.10;;;9.00;92.00;;;;;;5033806;28;20083;-80
2021/12/20 05:10:26;;;;;;;16.65;1.90;;;9.00;92.00;;;;;;5034041;28;20037;-81
2021/12/20 05:12:56;;;;;;;13.48;1.90;;;9.10;92.00;;;;;;5029750;28;20112;-81
2021/12/20 05:15:23;;;;;;;14.52;2.38;;;9.10;92.10;;;;;;5033453;28;20075;-81
2021/12/20 05:17:49;;;;;;;16.23;2.20;;;9.10;92.10;;;;;;5028624;28;20030;-78
2021/12/20 05:20:15;;;;;;;18.35;2.80;;;9.20;92.10;;;;;;5032856;28;20025;-82
2021/12/20 05:22:41;;;;;;;18.95;2.33;;;9.20;92.10;;;;;;5038104;28;20021;-81
2021/12/20 05:25:07;;;;;;;21.60;2.70;;;9.20;92.10;;;;;;5052046;28;20476;-82
2021/12/20 05:27:33;;;;;;;14.80;1.60;;;9.20;92.10;;;;;;5033304;28;20021;-82
2021/12/20 05:30:00;;;;;;;15.40;2.10;;;9.00;91.80;;;;;;5032931;28;20038;-80
2021/12/20 05:32:26;;;;;;;19.02;2.38;;;9.00;92.00;;;;;;5033207;28;20412;-79
2021/12/20 05:34:51;;;;;;;22.33;2.08;;;9.00;91.90;;;;;;5032540;28;20028;-79
2021/12/20 05:37:17;;;;;;;16.40;1.80;;;8.80;92.00;;;;;;5032530;28;20124;-79
2021/12/20 05:39:44;;;;;;;16.98;1.77;;;8.80;92.20;;;;;;5033342;28;20058;-78
2021/12/20 05:42:10;;;;;;;16.90;1.40;;;8.80;92.20;;;;;;5032384;28;20083;-84
2021/12/20 05:44:35;;;;;;;17.55;2.05;;;9.00;93.40;;;;;;5033228;28;20030;-82
2021/12/20 05:47:01;;;;;;;16.77;1.88;;;9.10;92.70;;;;;;5032561;28;20369;-84
2021/12/20 05:49:27;;;;;;;14.07;2.30;;;9.10;92.50;;;;;;5033059;28;20037;-87
2021/12/20 05:51:53;;;;;;;15.10;1.98;;;9.10;92.30;;;;;;5036546;28;20029;-83
2021/12/20 05:54:18;;;;;;;16.73;1.75;;;9.20;92.10;;;;;;5036680;28;20397;-79
2021/12/20 05:56:44;;;;;;;16.88;2.00;;;9.20;92.90;;;;;;5036551;28;20025;-79
2021/12/20 05:59:12;;;;;;;12.85;1.30;;;9.20;93.10;;;;;;5036523;28;20025;-79
2021/12/20 06:01:38;;;;;;;17.23;1.35;;;9.30;94.20;;;;;;5036260;28;20084;-79
2021/12/20 06:04:04;;;;;;;18.83;1.15;;;9.40;95.40;;;;;;5036407;28;20030;-81
2021/12/20 06:06:31;;;;;;;16.02;1.95;;;9.60;95.90;;;;;;5036469;28;20078;-80
2021/12/20 06:08:59;;;;;;;16.10;1.67;;;9.80;96.30;;;;;;5036483;28;20075;-80
2021/12/20 06:11:24;;;;;;;15.77;1.40;;;9.90;96.50;;;;;;5036415;28;20041;-80
2021/12/20 06:13:51;;;;;;;19.75;2.67;;;10.00;95.00;;;;;;5036419;28;20022;-80
2021/12/20 06:16:17;;;;;;;14.82;2.22;;;9.90;93.60;;;;;;5036842;28;20045;-81
2021/12/20 06:18:43;;;;;;;12.07;1.23;;;9.90;93.30;;;;;;5041778;28;20029;-78
2021/12/20 06:21:08;;;;;;;11.70;1.58;;;10.00;94.40;;;;;;5048140;28;20090;-80
2021/12/20 06:23:34;;;;;;;10.63;1.33;;;10.00;93.00;;;;;;5036780;28;20022;-81
2021/12/20 06:26:02;;;;;;;12.63;1.77;;;9.90;91.40;;;;;;5036238;28;20045;-80
2021/12/20 06:28:29;;;;;;;11.65;1.70;;;9.90;92.70;;;;;;5035987;28;20153;-80
2021/12/20 06:30:54;;;;;;;13.10;1.55;;;9.90;92.20;;;;;;5036300;28;20088;-82
2021/12/20 06:33:20;;;;;;;11.98;2.13;;;9.90;92.30;;;;;;5035591;28;20419;-81
2021/12/20 06:35:46;;;;;;;13.50;1.80;;;10.00;93.50;;;;;;5033646;28;20021;-81
2021/12/20 06:38:18;;;;;;;12.20;1.58;;;10.00;93.50;;;;;;5035460;28;20030;-82
2021/12/20 06:40:44;;;;;;;15.45;2.20;;;9.80;90.30;;;;;;5035401;28;20029;-78
2021/12/20 06:43:10;;;;;;;22.00;2.60;;;9.40;90.50;;;;;;5035045;28;20396;-79
2021/12/20 06:45:37;;;;;;;18.05;2.20;;;9.10;90.80;;;;;;5034946;28;20079;-81
2021/12/20 06:48:03;;;;;;;16.58;2.63;;;8.90;91.70;;;;;;5034865;28;20037;-82
2021/12/20 06:50:32;;;;;;;19.75;2.65;;;8.80;91.90;;;;;;5034551;28;20484;-82
2021/12/20 06:52:58;;;;;;;10.95;1.60;;;8.70;91.90;;;;;;5035578;28;20038;-81
2021/12/20 06:55:24;;;;;;;14.32;1.85;;;8.70;92.70;;;;;;5035109;28;20052;-81
2021/12/20 06:57:50;;;;;;;20.00;2.95;;;8.80;93.20;;;;;;5034482;28;20456;-83
2021/12/20 07:00:16;;;;;;;14.23;2.00;;;8.80;92.40;;;;;;5034473;28;20431;-82
2021/12/20 07:02:42;;;;;;;10.15;1.52;;;8.70;92.40;;;;;;5033187;28;20029;-83
2021/12/20 07:05:09;;;;;;;13.60;1.75;;;8.70;93.00;;;;;;5034113;28;20060;-83
2021/12/20 07:07:35;;;;;;;20.27;1.85;;;8.90;93.30;;;;;;5034795;28;20029;-83
2021/12/20 07:10:05;;;;;;;12.65;1.58;;;8.80;92.40;;;;;;5034397;28;20048;-81
2021/12/20 07:12:37;;;;;;;15.70;1.83;;;8.80;93.20;;;;;;5034439;28;20156;-79
2021/12/20 07:15:05;;;;;;;11.00;1.58;;;9.00;93.70;;;;;;5033312;28;20108;-79
2021/12/20 07:17:40;;;;;;;16.35;2.00;;;9.20;94.20;;;;;;5040642;28;20029;-76
2021/12/20 07:20:07;;;;;;;14.02;1.45;;;9.30;94.60;;;;;;5040695;28;20029;-78
2021/12/20 07:22:33;;;;;;;13.63;1.85;;;9.50;94.80;;;;;;5035521;28;20384;-82
2021/12/20 07:25:00;;;;;;;17.13;1.95;;;9.50;92.90;;;;;;5033758;28;20021;-88
2021/12/20 07:27:26;;;;;;;14.85;1.90;;;9.50;92.50;;;;;;5035497;28;20060;-89
2021/12/20 07:29:51;;;;;;;12.65;1.70;;;9.60;93.10;;;;;;5034587;28;20068;-84
2021/12/20 07:32:17;;;;;;;13.68;1.45;;;9.60;93.30;;;;;;5034210;28;20112;-89
2021/12/20 07:34:43;;;;;;;10.27;1.30;;;9.70;93.00;;;;;;5034417;28;20029;-88
2021/12/20 07:37:08;;;;;;;15.23;1.77;;;9.70;93.30;;;;;;5034503;28;20024;-85
2021/12/20 07:39:34;;;;;;;10.95;1.10;;;9.80;93.60;;;;;;5033513;28;20021;-82
2021/12/20 07:42:00;;;;;;;9.63;1.60;;;9.80;93.40;;;;;;5034050;28;20022;-84
2021/12/20 07:44:26;;;;;;;12.48;1.50;;;9.90;93.30;;;;;;5034465;28;20045;-85
2021/12/20 07:46:52;;;;;;;13.10;1.80;;;10.00;92.80;;;;;;5034329;28;20029;-84
2021/12/20 07:49:18;;;;;;;13.40;1.42;;;9.80;91.80;;;;;;5032974;28;20502;-86
2021/12/20 07:51:44;;;;;;;11.98;1.73;;;9.80;92.00;;;;;;5034048;28;20021;-87
2021/12/20 07:54:10;;;;;;;12.88;1.70;;;9.90;92.20;;;;;;5033384;28;20124;-86
2021/12/20 07:56:36;;;;;;;12.88;1.45;;;9.90;91.30;;;;;;5035180;28;20151;-85
2021/12/20 07:59:02;;;;;;;18.85;2.20;;;9.80;91.20;;;;;;5034277;28;20500;-86
2021/12/20 08:01:31;;;;;;;13.80;2.00;;;9.80;91.20;;;;;;5033810;28;20025;-87
2021/12/20 08:03:57;;;;;;;10.23;1.75;;;9.70;90.80;;;;;;5033853;28;20025;-87
2021/12/20 08:06:22;;;;;;;14.10;2.00;;;9.70;91.60;;;;;;5031829;28;20611;-81
2021/12/20 08:08:48;;;;;;;14.00;1.60;;;9.60;90.60;;;;;;5033001;28;20120;-78
2021/12/20 08:11:14;;;;;;;10.68;1.67;;;9.50;90.70;;;;;;5032430;28;20029;-79
2021/12/20 08:13:44;;;;;;;12.95;1.92;;;9.40;91.20;;;;;;5032959;28;20453;-79
2021/12/20 08:16:14;;;;;;;12.73;1.73;;;9.50;91.90;;;;;;5034137;28;20025;-78
2021/12/20 08:18:41;;;;;;;17.10;2.15;;;9.60;92.50;;;;;;5033270;28;20116;-79
2021/12/20 08:21:07;;;;;;;17.70;2.33;;;9.60;91.00;;;;;;5032510;28;20026;-82
2021/12/20 08:23:33;;;;;;;15.20;1.77;;;9.50;90.80;;;;;;5032356;28;20022;-83
2021/12/20 08:25:59;;;;;;;12.20;1.35;;;9.50;91.40;;;;;;5032465;28;20029;-79
2021/12/20 08:28:24;;;;;;;12.00;1.70;;;9.50;91.70;;;;;;5032903;28;20096;-78
2021/12/20 08:30:50;;;;;;;9.57;1.48;;;9.50;90.90;;;;;;5033964;28;20060;-77
2021/12/20 08:33:16;;;;;;;13.70;1.60;;;9.50;90.90;;;;;;5032683;28;20025;-80
2021/12/20 08:35:42;;;;;;;12.63;1.73;;;9.60;91.00;;;;;;5029694;28;20025;-76
2021/12/20 08:38:08;;;;;;;12.43;2.13;;;9.50;90.80;;;;;;5032042;28;20160;-76
2021/12/20 08:40:34;;;;;;;16.33;2.00;;;9.40;90.50;;;;;;5031540;28;20124;-76
2021/12/20 08:43:01;;;;;;;13.55;1.70;;;9.20;90.70;;;;;;5031382;28;20060;-76
2021/12/20 08:45:27;;;;;;;12.55;1.60;;;9.10;91.00;;;;;;5031745;28;20033;-77
2021/12/20 08:47:53;;;;;;;16.50;1.88;;;9.10;92.00;;;;;;5030134;28;20443;-77
2021/12/20 08:50:20;;;;;;;11.90;2.45;;;9.20;92.20;;;;;;5033261;28;20033;-77
2021/12/20 08:52:47;;;;;;;13.02;1.40;;;9.20;91.90;;;;;;5033323;28;20362;-78
2021/12/20 08:55:13;;;;;;;13.23;1.90;;;9.30;92.30;;;;;;5029585;28;20038;-79
2021/12/20 08:57:39;;;;;;;17.55;2.20;;;9.40;91.80;;;;;;5032083;28;20026;-80
2021/12/20 09:00:09;;;;;;;19.27;2.08;;;9.30;91.40;;;;;;5032135;28;20025;-78
2021/12/20 09:02:36;;;;;;;13.75;1.95;;;9.20;91.00;;;;;;5031717;28;20021;-76
2021/12/20 09:05:02;;;;;;;16.02;2.03;;;9.00;91.40;;;;;;5032054;28;20036;-77
2021/12/20 09:07:27;;;;;;;16.90;2.22;;;8.80;91.70;;;;;;5031397;28;20053;-76
2021/12/20 09:09:53;;;;;;;19.30;2.72;;;8.70;92.10;;;;;;5032254;28;20030;-77
2021/12/20 09:12:20;;;;;;;13.07;1.63;;;8.90;92.30;;;;;;5033134;28;20377;-75
2021/12/20 09:14:47;;;;;;;14.75;1.92;;;8.90;92.50;;;;;;5033247;28;20037;-76
2021/12/20 09:17:12;;;;;;;12.13;1.58;;;9.00;92.80;;;;;;5031851;28;20025;-81
2021/12/20 09:19:38;;;;;;;18.08;2.08;;;9.10;92.20;;;;;;5031936;28;20384;-80
2021/12/20 09:22:06;;;;;;;14.10;2.10;;;9.00;92.20;;;;;;5032352;28;20038;-79
2021/12/20 09:24:35;;;;;;;16.75;1.85;;;9.10;92.60;;;;;;5028532;28;20365;-81
2021/12/20 09:27:02;;;;;;;21.55;2.42;;;9.10;92.50;;;;;;5031041;28;20361;-81
2021/12/20 09:29:28;;;;;;;16.17;2.45;;;9.10;92.20;;;;;;5033576;28;20389;-79
2021/12/20 09:31:55;;;;;;;13.30;2.05;;;9.10;92.80;;;;;;5031783;28;20026;-82
2021/12/20 09:34:20;;;;;;;15.57;1.58;;;9.30;92.50;;;;;;5032244;28;20384;-81
2021/12/20 09:36:46;;;;;;;15.68;2.15;;;9.40;92.50;;;;;;5032973;28;20133;-78
2021/12/20 09:39:13;;;;;;;19.42;2.30;;;9.50;92.00;;;;;;5031620;28;20080;-82
2021/12/20 09:44:07;;;;;;;11.70;2.10;;;9.50;91.20;;;;;;5033544;28;20025;-82
2021/12/20 09:46:34;;;;;;;16.70;2.55;;;9.40;90.40;;;;;;5033788;28;20025;-81
2021/12/20 09:49:00;;;;;;;13.43;1.77;;;9.40;90.70;;;;;;5033600;28;20030;-81
2021/12/20 09:51:26;;;;;;;12.70;1.60;;;9.50;90.90;;;;;;5033672;28;20046;-82
2021/12/20 09:53:54;;;;;;;22.38;3.05;;;9.60;90.60;;;;;;5033989;28;20050;-82
2021/12/20 09:56:24;;;;;;;12.75;1.90;;;9.60;88.60;;;;;;5033924;28;20029;-81
2021/12/20 09:58:54;;;;;;;11.65;1.80;;;9.50;89.90;;;;;;5033259;28;20361;-80
2021/12/20 10:01:21;;;;;;;17.80;2.28;;;9.50;89.60;;;;;;5032981;28;20021;-83
2021/12/20 10:03:47;;;;;;;23.70;2.78;;;9.40;89.00;;;;;;5032205;28;20111;-81
2021/12/20 10:06:14;;;;;;;18.38;2.42;;;9.20;88.40;;;;;;5031781;28;20044;-80
2021/12/20 10:08:50;;;;;;;16.60;2.00;;;9.10;90.10;;;;;;5032647;28;20038;-80
2021/12/20 10:11:21;;;;;;;15.27;2.38;;;9.20;90.20;;;;;;5040362;28;20013;-80
2021/12/20 10:13:48;;;;;;;18.77;2.40;;;9.30;89.90;;;;;;5038327;28;20473;-78
2021/12/20 10:16:19;;;;;;;16.95;2.05;;;9.30;90.10;;;;;;5032154;28;20033;-79
2021/12/20 10:18:46;;;;;;;15.23;2.58;;;9.40;89.50;;;;;;5031739;28;20028;-79
2021/12/20 10:21:12;;;;;;;16.92;1.77;;;9.40;90.00;;;;;;5031486;28;20120;-83
2021/12/20 10:23:40;;;;;;;27.83;2.70;;;9.50;90.00;;;;;;5031306;28;20116;-80
2021/12/20 10:26:16;;;;;;;15.82;1.80;;;9.60;90.00;;;;;;5029613;28;20030;-82
2021/12/20 10:28:43;;;;;;;14.32;2.40;;;9.70;89.50;;;;;;5031941;28;20439;-84
2021/12/20 10:31:13;;;;;;;21.17;2.70;;;9.90;88.90;;;;;;5032820;28;20057;-79
2021/12/20 10:33:41;;;;;;;18.45;1.90;;;9.90;88.30;;;;;;5032028;28;20068;-82
2021/12/20 10:36:10;;;;;;;24.13;3.08;;;9.90;88.30;;;;;;5032091;28;20021;-83
2021/12/20 10:38:41;;;;;;;19.48;3.00;;;10.00;88.10;;;;;;5034495;28;20021;-83
2021/12/20 10:42:04;;;;;;;16.52;2.60;;;10.10;87.50;;;;;;5035430;28;20380;-86
2021/12/20 10:44:30;;;;;;;17.67;2.40;;;10.10;86.70;;;;;;5036578;28;20029;-83
2021/12/20 10:46:58;;;;;;;18.30;2.20;;;10.20;87.10;;;;;;5036862;28;20029;-84
2021/12/20 10:49:29;;;;;;;19.98;3.35;;;10.30;86.10;;;;;;5035913;28;20025;-83
2021/12/20 10:51:56;;;;;;;13.43;2.45;;;10.10;87.10;;;;;;5036833;28;20542;-86
2021/12/20 10:54:25;;;;;;;18.67;2.38;;;10.10;87.90;;;;;;5035075;28;20050;-81
2021/12/20 10:57:00;;;;;;;19.48;2.70;;;10.10;86.60;;;;;;5030898;28;20029;-79
2021/12/20 10:59:32;;;;;;;16.08;1.90;;;10.10;85.70;;;;;;5029220;28;20044;-79
2021/12/20 11:04:31;;;;;;;20.05;2.97;;;10.20;86.20;;;;;;5035536;28;20056;-78
2021/12/20 11:09:45;;;;;;;18.05;3.78;;;10.10;85.80;;;;;;5040698;28;20038;-78
2021/12/20 11:12:32;;;;;;;17.20;2.45;;;10.10;85.70;;;;;;5031997;28;20038;-79
2021/12/20 11:15:01;;;;;;;26.92;3.63;;;10.10;84.90;;;;;;5030338;28;20041;-80
2021/12/20 11:17:31;;;;;;;23.08;4.18;;;10.10;84.90;;;;;;5032180;28;20114;-79
2021/12/20 11:19:57;;;;;;;25.65;3.13;;;10.00;85.90;;;;;;5032413;28;20029;-78
2021/12/20 11:22:33;;;;;;;20.67;3.28;;;10.10;85.50;;;;;;5033050;28;20056;-79
2021/12/20 11:25:03;;;;;;;19.52;2.25;;;10.10;84.90;;;;;;5033483;28;20048;-79
2021/12/20 11:27:51;;;;;;;22.63;2.85;;;10.10;84.50;;;;;;5033868;28;20032;-79
2021/12/20 11:30:19;;;;;;;26.23;2.97;;;10.30;85.50;;;;;;5034577;28;20099;-79
2021/12/20 11:32:47;;;;;;;25.77;3.58;;;10.30;84.80;;;;;;5033994;28;20036;-80
2021/12/20 11:35:18;;;;;;;28.10;3.33;;;10.30;84.30;;;;;;5032391;28;20072;-88
2021/12/20 11:37:44;;;;;;;18.77;2.70;;;10.30;83.60;;;;;;5030774;28;20030;-79
2021/12/20 11:40:12;;;;;;;23.30;3.63;;;10.00;83.20;;;;;;5033530;28;20454;-82
2021/12/20 11:42:38;;;;;;;22.85;3.53;;;9.90;85.60;;;;;;5033708;28;20160;-83
2021/12/20 11:45:07;;;;;;;32.72;4.95;;;9.90;84.00;;;;;;5033433;28;20033;-83
2021/12/20 11:47:54;;;;;;;20.90;3.60;;;9.80;84.30;;;;;;5033577;28;20033;-84
2021/12/20 11:50:23;;;;;;;24.83;3.38;;;9.90;85.00;;;;;;5032884;28;20498;-86
2021/12/20 11:52:51;;;;;;;23.35;3.10;;;10.10;85.70;;;;;;5034679;28;20041;-83
2021/12/20 11:55:23;;;;;;;23.98;2.95;;;10.20;84.40;;;;;;5031355;28;20032;-81
2021/12/20 11:57:51;;;;;;;20.33;2.40;;;10.30;83.00;;;;;;5030878;28;20018;-83
2021/12/20 12:00:26;;;;;;;14.50;2.17;;;10.40;82.10;;;;;;5035189;28;20025;-82
2021/12/20 12:02:55;;;;;;;21.42;2.60;;;10.50;81.30;;;;;;5047322;28;20025;-83
2021/12/20 12:05:35;;;;;;;22.45;2.30;;;10.60;80.70;;;;;;5048893;28;20021;-83
2021/12/20 12:08:32;;;;;;;15.18;2.15;;;10.70;78.90;;;;;;5028396;28;20018;-81
2021/12/20 12:11:09;;;;;;;14.85;1.92;;;10.70;79.20;;;;;;5028718;28;20125;-79
2021/12/20 12:13:57;;;;;;;20.17;2.17;;;10.70;77.60;;;;;;5034888;28;20387;-80
2021/12/20 12:16:28;;;;;;;21.23;2.33;;;10.70;77.90;;;;;;5031773;28;20026;-80
2021/12/20 12:18:58;;;;;;;19.33;2.92;;;10.70;78.80;;;;;;5031279;28;20174;-79
2021/12/20 12:21:39;;;;;;;15.55;2.25;;;10.70;77.80;;;;;;5031095;28;20068;-80
2021/12/20 12:24:08;;;;;;;9.48;1.80;;;10.80;78.30;;;;;;5033215;28;20029;-79
2021/12/20 12:26:47;;;;;;;19.60;3.10;;;10.90;75.50;;;;;;5027394;28;20484;-78
2021/12/20 12:29:25;;;;;;;14.05;1.60;;;10.80;73.30;;;;;;5032395;28;20029;-78
2021/12/20 12:32:01;;;;;;;14.98;2.00;;;10.80;73.40;;;;;;5031187;28;20041;-80
2021/12/20 12:34:41;;;;;;;20.25;3.10;;;10.80;73.10;;;;;;5031144;28;20026;-79
2021/12/20 12:37:34;;;;;;;11.82;1.90;;;10.80;72.30;;;;;;5029138;28;20189;-79
2021/12/20 12:40:22;;;;;;;17.30;2.50;;;10.90;74.80;;;;;;5022436;28;20109;-79
2021/12/20 12:42:54;;;;;;;13.77;2.50;;;11.00;75.40;;;;;;5032305;28;20037;-80
2021/12/20 12:45:48;;;;;;;21.63;3.08;;;11.10;77.00;;;;;;5032722;28;20026;-79
2021/12/20 12:48:32;;;;;;;20.90;2.58;;;11.10;76.00;;;;;;5033187;28;20045;-80
2021/12/20 12:51:18;;;;;;;18.35;2.63;;;11.10;77.20;;;;;;5032507;28;20511;-79
2021/12/20 12:53:48;;;;;;;18.20;3.15;;;11.10;76.10;;;;;;5031279;28;20057;-81
2021/12/20 12:56:30;;;;;;;14.25;2.80;;;11.20;77.80;;;;;;5035686;28;20503;-85
2021/12/20 12:59:19;;;;;;;23.52;3.97;;;11.40;78.50;;;;;;5042560;28;20020;-82
2021/12/20 13:01:52;;;;;;;26.15;3.47;;;11.60;77.60;;;;;;5042007;28;20033;-81
2021/12/20 13:04:18;;;;;;;31.40;3.97;;;11.60;77.30;;;;;;5033339;28;20103;-80
2021/12/20 13:06:45;;;;;;;17.83;2.70;;;11.60;78.10;;;;;;5032614;28;20029;-81
2021/12/20 13:09:10;;;;;;;19.60;3.17;;;11.50;74.70;;;;;;5031753;28;20101;-82
2021/12/20 13:11:36;;;;;;;21.08;3.42;;;11.40;76.00;;;;;;5032276;28;20038;-79